createdAt,value
2022-11-16T00:02:22.509Z,16.52
2022-11-16T00:04:49.622Z,15.75
2022-11-16T00:07:16.806Z,15.77
2022-11-16T00:09:43.750Z,15.45
2022-11-16T00:12:10.708Z,16.55
2022-11-16T00:14:37.721Z,15.93
2022-11-16T00:17:04.615Z,16.52
2022-11-16T00:19:31.632Z,16.33
2022-11-16T00:21:58.571Z,16.55
2022-11-16T00:24:25.483Z,15.85
2022-11-16T00:26:52.398Z,16.55
2022-11-16T00:29:19.344Z,16.02
2022-11-16T00:31:46.265Z,15.73
2022-11-16T00:34:13.208Z,15.98
2022-11-16T00:36:40.129Z,15.18
2022-11-16T00:39:07.082Z,15.25
2022-11-16T00:41:34.006Z,15.10
2022-11-16T00:44:00.961Z,14.90
2022-11-16T00:46:27.893Z,14.90
2022-11-16T00:48:54.846Z,15.25
2022-11-16T00:51:21.884Z,14.65
2022-11-16T00:53:48.859Z,13.95
2022-11-16T00:56:15.772Z,14.48
2022-11-16T00:58:42.728Z,14.82
2022-11-16T01:01:09.735Z,13.75
2022-11-16T01:03:36.755Z,14.27
2022-11-16T01:06:03.674Z,13.65
2022-11-16T01:08:30.969Z,14.02
2022-11-16T01:10:58.793Z,14.57
2022-11-16T01:13:25.725Z,14.05
2022-11-16T01:15:52.637Z,13.77
2022-11-16T01:18:19.579Z,13.02
2022-11-16T01:20:46.706Z,13.75
2022-11-16T01:23:13.602Z,13.13
2022-11-16T01:25:40.523Z,13.55
2022-11-16T01:28:07.423Z,13.93
2022-11-16T01:30:34.378Z,13.88
2022-11-16T01:33:01.484Z,12.98
2022-11-16T01:35:28.382Z,13.35
2022-11-16T01:37:55.288Z,13.52
2022-11-16T01:40:22.258Z,12.85
2022-11-16T01:42:49.181Z,13.48
2022-11-16T01:45:16.127Z,13.27
2022-11-16T01:47:43.028Z,13.38
2022-11-16T01:50:09.936Z,13.75
2022-11-16T01:52:37.034Z,13.98
2022-11-16T01:55:03.925Z,14.40
2022-11-16T01:57:30.828Z,15.02
2022-11-16T01:59:57.796Z,14.82
2022-11-16T02:02:24.725Z,13.82
2022-11-16T02:04:51.675Z,13.75
2022-11-16T02:07:18.687Z,13.75
2022-11-16T02:09:45.650Z,14.30
2022-11-16T02:12:12.556Z,13.95
2022-11-16T02:14:39.505Z,13.85
2022-11-16T02:17:06.413Z,13.65
2022-11-16T02:19:33.388Z,13.57
2022-11-16T02:22:00.284Z,12.88
2022-11-16T02:24:27.219Z,14.50
2022-11-16T02:26:54.145Z,14.38
2022-11-16T02:29:21.111Z,15.25
2022-11-16T02:31:48.019Z,13.68
2022-11-16T02:34:14.937Z,14.07
2022-11-16T02:36:41.863Z,13.85
2022-11-16T02:39:08.760Z,14.05
2022-11-16T02:41:35.688Z,14.18
2022-11-16T02:44:02.615Z,14.45
2022-11-16T02:46:29.554Z,13.95
2022-11-16T02:48:56.469Z,15.48
2022-11-16T02:51:23.373Z,15.68
2022-11-16T02:53:50.287Z,14.52
2022-11-16T02:56:17.247Z,14.18
2022-11-16T02:58:44.132Z,14.63
2022-11-16T03:01:11.144Z,14.15
2022-11-16T03:03:38.124Z,14.35
2022-11-16T03:06:05.087Z,13.65
2022-11-16T03:08:32.440Z,14.32
2022-11-16T03:16:17.822Z,13.80
2022-11-16T03:18:44.759Z,13.07
2022-11-16T03:21:11.744Z,13.98
2022-11-16T03:23:38.652Z,14.68
2022-11-16T03:26:05.584Z,14.15
2022-11-16T03:28:32.759Z,14.82
2022-11-16T03:30:59.924Z,14.00
2022-11-16T03:33:26.844Z,14.20
2022-11-16T03:35:53.772Z,15.18
2022-11-16T03:38:20.713Z,14.02
2022-11-16T03:40:47.701Z,13.45
2022-11-16T03:43:14.617Z,14.10
2022-11-16T03:45:41.558Z,14.05
2022-11-16T03:48:08.493Z,14.15
2022-11-16T03:50:35.442Z,13.15
2022-11-16T03:53:02.488Z,14.85
2022-11-16T03:55:29.469Z,15.13
2022-11-16T03:57:56.381Z,14.95
2022-11-16T04:00:23.300Z,14.63
2022-11-16T04:02:50.195Z,14.35
2022-11-16T04:05:17.239Z,14.60
2022-11-16T04:07:44.153Z,14.82
2022-11-16T04:10:11.087Z,14.68
2022-11-16T04:12:37.972Z,15.80
2022-11-16T04:15:04.898Z,16.00
2022-11-16T04:17:31.894Z,15.88
2022-11-16T04:19:58.788Z,14.82
2022-11-16T04:22:25.714Z,16.60
2022-11-16T04:24:52.679Z,15.82
2022-11-16T04:27:19.599Z,15.55
2022-11-16T04:29:46.809Z,15.02
2022-11-16T04:32:13.815Z,15.50
2022-11-16T04:34:40.753Z,14.90
2022-11-16T04:37:07.754Z,15.35
2022-11-16T04:39:34.727Z,15.25
2022-11-16T04:42:01.658Z,14.85
2022-11-16T04:44:30.063Z,15.20
2022-11-16T04:46:57.326Z,14.48
2022-11-16T04:49:24.239Z,14.50
2022-11-16T04:51:51.126Z,14.60
2022-11-16T04:54:18.045Z,14.55
2022-11-16T04:56:44.948Z,14.40
2022-11-16T04:59:11.939Z,15.15
2022-11-16T05:01:39.014Z,15.10
2022-11-16T05:04:06.005Z,14.93
2022-11-16T05:06:32.995Z,14.85
2022-11-16T05:08:59.914Z,14.30
2022-11-16T05:11:26.818Z,15.48
2022-11-16T05:13:53.784Z,15.32
2022-11-16T05:16:20.697Z,13.57
2022-11-16T05:18:47.606Z,13.50
2022-11-16T05:21:14.553Z,14.45
2022-11-16T05:23:41.656Z,14.13
2022-11-16T05:26:08.630Z,15.45
2022-11-16T05:28:35.875Z,14.43
2022-11-16T05:31:03.000Z,14.68
2022-11-16T05:33:29.907Z,13.52
2022-11-16T05:36:00.533Z,14.10
2022-11-16T05:38:27.475Z,14.95
2022-11-16T05:40:54.448Z,15.38
2022-11-16T05:43:21.344Z,15.27
2022-11-16T05:45:48.290Z,15.18
2022-11-16T05:48:15.181Z,15.68
2022-11-16T05:50:43.151Z,15.35
2022-11-16T05:53:10.352Z,14.73
2022-11-16T05:55:37.299Z,14.73
2022-11-16T05:58:04.175Z,14.60
2022-11-16T06:00:31.046Z,15.32
2022-11-16T06:02:57.985Z,14.93
2022-11-16T06:05:24.914Z,15.15
2022-11-16T06:07:51.814Z,14.60
2022-11-16T06:10:18.736Z,14.63
2022-11-16T06:12:45.646Z,13.95
2022-11-16T06:15:12.587Z,14.07
2022-11-16T06:17:39.474Z,15.40
2022-11-16T06:20:06.375Z,15.57
2022-11-16T06:22:33.306Z,14.85
2022-11-16T06:25:00.176Z,14.35
2022-11-16T06:27:27.074Z,15.10
2022-11-16T06:29:53.950Z,14.13
2022-11-16T06:32:20.862Z,15.75
2022-11-16T06:34:47.754Z,14.70
2022-11-16T06:37:15.374Z,15.20
2022-11-16T06:39:42.297Z,16.13
2022-11-16T06:44:59.929Z,14.23
2022-11-16T06:47:27.027Z,15.10
2022-11-16T06:49:53.983Z,15.23
2022-11-16T06:52:43.682Z,16.38
2022-11-16T06:55:10.629Z,15.27
2022-11-16T06:57:44.635Z,14.82
2022-11-16T07:00:17.757Z,15.10
2022-11-16T07:02:44.686Z,13.75
2022-11-16T07:05:23.780Z,14.65
2022-11-16T07:07:59.002Z,14.88
2022-11-16T07:10:25.921Z,14.30
2022-11-16T07:12:54.539Z,14.82
2022-11-16T07:15:22.657Z,14.57
2022-11-16T07:17:49.706Z,14.93
2022-11-16T07:20:16.673Z,14.15
2022-11-16T07:22:43.690Z,14.77
2022-11-16T07:25:10.661Z,14.65
2022-11-16T07:27:37.625Z,16.13
2022-11-16T07:30:06.578Z,15.77
2022-11-16T07:32:33.528Z,14.63
2022-11-16T07:35:00.442Z,15.15
2022-11-16T07:37:27.337Z,14.70
2022-11-16T07:39:54.234Z,16.30
2022-11-16T07:42:23.082Z,16.08
2022-11-16T07:44:50.032Z,16.08
2022-11-16T07:47:16.957Z,15.85
2022-11-16T07:55:15.434Z,16.65
2022-11-16T07:57:42.510Z,15.80
2022-11-16T08:02:55.899Z,15.48
2022-11-16T08:05:26.070Z,15.85
2022-11-16T08:07:53.008Z,17.33
2022-11-16T08:10:23.083Z,17.52
2022-11-16T08:12:59.251Z,17.27
2022-11-16T08:15:26.191Z,16.55
2022-11-16T08:17:53.297Z,16.48
2022-11-16T08:20:20.215Z,16.58
2022-11-16T08:26:36.860Z,17.27
2022-11-16T08:31:20.824Z,18.65
2022-11-16T08:33:47.978Z,18.70
2022-11-16T08:36:15.134Z,19.38
2022-11-16T08:38:42.076Z,18.13
2022-11-16T08:43:49.872Z,19.92
2022-11-16T08:46:16.808Z,18.00
2022-11-16T08:48:43.776Z,19.45
2022-11-16T08:51:17.593Z,18.85
2022-11-16T08:53:45.707Z,18.50
2022-11-16T08:56:12.620Z,17.75
2022-11-16T08:58:39.570Z,18.25
2022-11-16T09:01:06.542Z,18.30
2022-11-16T09:03:33.544Z,18.33
2022-11-16T09:06:00.496Z,18.67
2022-11-16T09:08:27.465Z,17.67
2022-11-16T09:10:54.382Z,17.75
2022-11-16T09:13:21.437Z,16.38
2022-11-16T09:15:48.366Z,17.92
2022-11-16T09:18:15.278Z,17.25
2022-11-16T09:20:42.182Z,16.73
2022-11-16T09:23:09.091Z,16.85
2022-11-16T09:25:36.104Z,17.70
2022-11-16T09:28:03.077Z,16.02
2022-11-16T09:30:30.001Z,17.85
2022-11-16T09:32:56.993Z,18.63
2022-11-16T09:35:23.921Z,16.73
2022-11-16T09:37:50.879Z,15.82
2022-11-16T09:40:17.789Z,16.23
2022-11-16T09:42:44.734Z,15.25
2022-11-16T09:45:11.689Z,16.42
2022-11-16T09:47:38.618Z,15.18
2022-11-16T09:50:05.573Z,15.68
2022-11-16T09:52:32.507Z,15.50
2022-11-16T09:54:59.452Z,15.90
2022-11-16T09:57:26.369Z,15.65
2022-11-16T09:59:53.273Z,15.75
2022-11-16T10:02:20.156Z,16.05
2022-11-16T10:04:47.094Z,15.65
2022-11-16T10:07:14.031Z,15.45
2022-11-16T10:09:40.978Z,16.45
2022-11-16T10:12:07.892Z,14.90
2022-11-16T10:14:34.824Z,14.85
2022-11-16T10:17:01.715Z,15.23
2022-11-16T10:19:28.736Z,14.45
2022-11-16T10:21:55.839Z,16.25
2022-11-16T10:24:22.738Z,16.33
2022-11-16T10:26:49.637Z,15.85
2022-11-16T10:29:16.544Z,16.38
2022-11-16T10:31:43.439Z,15.43
2022-11-16T10:34:10.372Z,15.98
2022-11-16T10:36:37.275Z,14.80
2022-11-16T10:39:04.193Z,16.08
2022-11-16T10:41:31.083Z,16.13
2022-11-16T10:43:57.992Z,15.18
2022-11-16T10:46:24.912Z,15.80
2022-11-16T10:48:51.837Z,15.15
2022-11-16T10:51:18.752Z,15.07
2022-11-16T10:53:45.729Z,15.07
2022-11-16T10:56:12.641Z,14.50
2022-11-16T10:58:40.757Z,16.00
2022-11-16T11:01:07.689Z,15.63
2022-11-16T11:03:34.979Z,14.57
2022-11-16T11:06:02.114Z,14.52
2022-11-16T11:08:29.055Z,15.05
2022-11-16T11:10:55.963Z,14.60
2022-11-16T11:13:22.861Z,13.98
2022-11-16T11:15:49.806Z,14.85
2022-11-16T11:18:16.749Z,15.60
2022-11-16T11:20:45.319Z,15.13
2022-11-16T11:23:12.453Z,14.70
2022-11-16T11:25:39.327Z,15.73
2022-11-16T11:28:06.247Z,14.88
2022-11-16T11:30:33.170Z,13.65
2022-11-16T11:33:00.096Z,13.73
2022-11-16T11:35:27.013Z,15.32
2022-11-16T11:37:53.918Z,16.08
2022-11-16T11:40:20.825Z,14.15
2022-11-16T11:42:47.733Z,14.02
2022-11-16T11:45:14.639Z,14.27
2022-11-16T11:47:59.143Z,14.13
2022-11-16T11:50:26.447Z,14.35
2022-11-16T11:52:53.337Z,14.25
2022-11-16T11:55:20.230Z,13.05
2022-11-16T11:57:47.320Z,13.32
2022-11-16T12:00:14.279Z,14.13
2022-11-16T12:02:41.299Z,14.65
2022-11-16T12:05:08.211Z,14.30
2022-11-16T12:07:35.129Z,13.57
2022-11-16T12:10:02.053Z,13.98
2022-11-16T12:12:28.945Z,14.32
2022-11-16T12:14:55.832Z,13.85
2022-11-16T12:17:22.810Z,14.07
2022-11-16T12:19:49.764Z,14.23
2022-11-16T12:22:16.662Z,13.40
2022-11-16T12:24:43.541Z,13.95
2022-11-16T12:27:10.450Z,14.60
2022-11-16T12:29:37.536Z,15.43
2022-11-16T12:32:04.440Z,14.20
2022-11-16T12:34:31.374Z,15.75
2022-11-16T12:36:58.304Z,14.52
2022-11-16T12:39:25.228Z,15.07
2022-11-16T12:41:52.146Z,14.93
2022-11-16T12:44:22.329Z,14.80
2022-11-16T12:46:49.271Z,14.30
2022-11-16T12:49:19.401Z,15.02
2022-11-16T12:51:46.349Z,14.23
2022-11-16T12:54:13.346Z,14.32
2022-11-16T12:56:43.402Z,14.38
2022-11-16T12:59:14.460Z,14.63
2022-11-16T13:01:41.475Z,14.82
2022-11-16T13:04:08.461Z,15.07
2022-11-16T13:06:36.448Z,13.48
2022-11-16T13:11:46.666Z,15.18
2022-11-16T13:20:03.884Z,13.23
2022-11-16T13:22:30.872Z,13.38
2022-11-16T13:24:59.158Z,13.05
2022-11-16T13:27:26.170Z,14.02
2022-11-16T13:29:53.217Z,13.52
2022-11-16T13:32:20.221Z,13.07
2022-11-16T13:34:47.307Z,13.35
2022-11-16T13:37:14.361Z,12.45
2022-11-16T13:39:41.318Z,12.05
2022-11-16T13:42:08.282Z,12.75
2022-11-16T13:44:35.215Z,12.60
2022-11-16T14:09:31.926Z,10.55
2022-11-16T14:12:02.250Z,9.40
2022-11-16T14:14:31.616Z,9.02
2022-11-16T14:16:58.813Z,8.75
2022-11-16T14:33:38.579Z,8.35
2022-11-16T14:36:05.651Z,8.60
2022-11-16T14:38:32.613Z,7.93
2022-11-16T14:41:00.109Z,8.43
2022-11-16T14:43:27.172Z,8.73
2022-11-16T14:45:54.086Z,7.72
2022-11-16T14:48:21.064Z,7.03
2022-11-16T14:50:47.991Z,8.30
2022-11-16T14:53:14.915Z,7.57
2022-11-16T14:55:41.818Z,7.68
2022-11-16T14:58:08.738Z,8.13
2022-11-16T15:00:35.631Z,8.50
2022-11-16T15:03:03.116Z,8.20
2022-11-16T15:05:30.142Z,8.45
2022-11-16T15:07:57.096Z,9.20
2022-11-16T15:10:23.993Z,8.35
2022-11-16T15:12:50.899Z,8.88
2022-11-16T15:15:17.835Z,8.57
2022-11-16T15:17:44.749Z,8.60
2022-11-16T15:20:11.658Z,8.82
2022-11-16T15:22:38.574Z,8.10
2022-11-16T15:25:05.479Z,8.23
2022-11-16T15:27:32.393Z,8.10
2022-11-16T15:29:59.320Z,8.80
2022-11-16T15:32:26.229Z,8.32
2022-11-16T15:34:53.157Z,8.13
2022-11-16T15:37:21.144Z,9.10
2022-11-16T15:39:48.055Z,8.45
2022-11-16T15:42:14.942Z,8.80
2022-11-16T15:44:41.855Z,8.50
2022-11-16T15:47:08.765Z,8.15
2022-11-16T15:49:35.715Z,7.82
2022-11-16T15:52:02.640Z,7.82
2022-11-16T15:54:29.564Z,8.07
2022-11-16T15:56:56.469Z,8.00
2022-11-16T15:59:23.397Z,7.47
2022-11-16T16:01:50.311Z,7.70
2022-11-16T16:04:17.268Z,7.38
2022-11-16T16:06:44.190Z,7.28
2022-11-16T16:09:11.121Z,7.18
2022-11-16T16:11:38.031Z,6.43
2022-11-16T16:14:05.117Z,7.20
2022-11-16T16:16:32.037Z,6.40
2022-11-16T16:18:59.192Z,6.55
2022-11-16T16:21:26.612Z,6.40
2022-11-16T16:23:53.545Z,5.75
2022-11-16T16:26:20.445Z,6.57
2022-11-16T16:28:47.547Z,6.10
2022-11-16T16:31:14.668Z,5.97
2022-11-16T16:33:41.681Z,5.93
2022-11-16T16:36:08.672Z,5.32
2022-11-16T16:38:35.658Z,5.65
2022-11-16T16:41:02.652Z,4.90
2022-11-16T16:43:29.607Z,5.75
2022-11-16T16:45:56.584Z,5.97
2022-11-16T16:48:23.499Z,4.95
2022-11-16T16:50:57.126Z,5.25
2022-11-16T16:53:29.756Z,4.88
2022-11-16T16:55:56.738Z,5.25
2022-11-16T16:58:23.678Z,4.82
2022-11-16T17:00:50.920Z,5.10
2022-11-16T17:03:17.924Z,4.72
2022-11-16T17:05:47.623Z,5.32
2022-11-16T17:08:14.523Z,5.40
2022-11-16T17:10:44.531Z,5.72
2022-11-16T17:13:11.426Z,6.53
2022-11-16T17:15:38.379Z,6.55
2022-11-16T17:18:05.295Z,6.10
2022-11-16T17:20:32.259Z,6.53
2022-11-16T17:22:59.180Z,7.03
2022-11-16T17:25:26.094Z,6.40
2022-11-16T17:27:53.010Z,6.55
2022-11-16T17:30:19.987Z,6.60
2022-11-16T17:32:46.895Z,6.45
2022-11-16T17:35:13.877Z,6.32
2022-11-16T17:37:40.827Z,6.90
2022-11-16T17:40:07.737Z,6.60
2022-11-16T17:42:34.671Z,6.50
2022-11-16T17:45:01.590Z,5.80
2022-11-16T17:47:28.519Z,5.45
2022-11-16T17:49:55.435Z,5.55
2022-11-16T17:52:22.467Z,5.05
2022-11-16T17:54:49.419Z,5.28
2022-11-16T17:57:16.368Z,5.97
2022-11-16T17:59:46.555Z,5.07
2022-11-16T18:02:13.517Z,5.30
2022-11-16T18:19:06.499Z,5.30
2022-11-16T18:21:33.667Z,5.00
2022-11-16T18:24:00.561Z,5.07
2022-11-16T18:26:27.461Z,4.82
2022-11-16T18:28:54.340Z,5.45
2022-11-16T18:31:21.274Z,5.30
2022-11-16T18:33:48.223Z,5.55
2022-11-16T18:36:15.157Z,5.80
2022-11-16T18:38:42.068Z,6.18
2022-11-16T18:41:09.070Z,6.03
2022-11-16T18:43:36.564Z,6.55
2022-11-16T18:46:03.706Z,6.18
2022-11-16T18:48:30.617Z,6.32
2022-11-16T18:50:57.518Z,5.60
2022-11-16T18:53:24.427Z,6.22
2022-11-16T18:55:56.515Z,6.38
2022-11-16T18:58:49.413Z,7.57
2022-11-16T19:01:11.920Z,7.75
2022-11-16T19:03:38.887Z,7.43
2022-11-16T19:06:05.813Z,7.43
2022-11-16T19:08:32.744Z,8.20
2022-11-16T19:10:59.647Z,7.60
2022-11-16T19:13:26.543Z,7.85
2022-11-16T19:15:53.500Z,8.20
2022-11-16T19:18:22.029Z,7.68
2022-11-16T19:20:49.210Z,6.75
2022-11-16T19:23:16.119Z,7.20
2022-11-16T19:25:43.019Z,7.32
2022-11-16T19:28:09.908Z,7.20
2022-11-16T19:30:36.905Z,6.28
2022-11-16T19:33:03.788Z,6.45
2022-11-16T19:35:30.739Z,6.70
2022-11-16T19:37:58.698Z,5.75
2022-11-16T19:40:25.648Z,5.85
2022-11-16T19:42:52.564Z,5.50
2022-11-16T19:45:19.497Z,6.07
2022-11-16T19:47:46.464Z,5.50
2022-11-16T19:50:13.389Z,5.60
2022-11-16T19:52:41.765Z,6.38
2022-11-16T19:55:17.173Z,5.38
2022-11-16T20:00:24.960Z,5.25
2022-11-16T20:02:51.995Z,5.25
2022-11-16T20:05:20.969Z,5.93
2022-11-16T20:07:47.966Z,6.10
2022-11-16T20:10:16.202Z,6.07
2022-11-16T20:12:43.150Z,5.93
2022-11-16T20:15:10.098Z,5.60
2022-11-16T20:17:39.849Z,5.60
2022-11-16T20:20:06.781Z,5.72
2022-11-16T20:22:33.819Z,5.95
2022-11-16T20:25:00.769Z,5.68
2022-11-16T20:27:27.819Z,5.80
2022-11-16T20:29:54.752Z,6.38
2022-11-16T20:32:21.792Z,6.47
2022-11-16T20:34:48.863Z,6.68
2022-11-16T20:37:15.863Z,6.18
2022-11-16T20:39:42.938Z,6.38
2022-11-16T20:42:11.943Z,6.38
2022-11-16T20:44:38.858Z,6.53
2022-11-16T20:47:05.790Z,7.32
2022-11-16T20:49:35.990Z,6.28
2022-11-16T20:52:03.027Z,6.20
2022-11-16T20:54:29.937Z,6.32
2022-11-16T20:57:04.782Z,6.00
2022-11-16T20:59:42.206Z,6.38
2022-11-16T21:05:00.226Z,6.07
2022-11-16T21:07:32.354Z,6.15
2022-11-16T21:10:02.297Z,6.32
2022-11-16T21:12:29.324Z,6.43
2022-11-16T21:15:00.548Z,5.90
2022-11-16T21:17:30.344Z,6.18
2022-11-16T21:20:25.739Z,5.43
2022-11-16T21:22:47.150Z,5.63
2022-11-16T21:27:58.244Z,5.72
2022-11-16T21:30:25.486Z,6.10
2022-11-16T21:33:10.070Z,5.45
2022-11-16T21:39:02.186Z,6.10
2022-11-16T21:41:19.457Z,6.18
2022-11-16T21:43:46.500Z,5.90
2022-11-16T21:46:21.766Z,5.40
2022-11-16T21:48:48.853Z,5.03
2022-11-16T21:51:15.907Z,5.70
2022-11-16T21:59:14.573Z,4.78
2022-11-16T22:01:48.259Z,4.55
2022-11-16T22:04:17.861Z,4.00
2022-11-16T22:06:48.504Z,4.72
2022-11-16T22:09:19.596Z,4.88
2022-11-16T22:31:44.668Z,3.58
2022-11-16T22:34:20.666Z,3.42
2022-11-16T22:39:39.555Z,3.28
2022-11-16T22:47:41.596Z,3.35
2022-11-16T22:50:08.529Z,2.90
2022-11-16T22:52:35.445Z,3.13
2022-11-16T22:57:54.217Z,2.90
2022-11-16T23:00:27.901Z,2.47
2022-11-16T23:08:27.238Z,2.45
2022-11-16T23:10:54.267Z,2.38
2022-11-16T23:13:21.172Z,2.20
2022-11-16T23:15:48.143Z,2.55
2022-11-16T23:18:15.082Z,2.25
2022-11-16T23:20:42.034Z,2.90
2022-11-16T23:23:08.981Z,2.20
2022-11-16T23:25:35.920Z,2.50
2022-11-16T23:28:02.931Z,2.67
2022-11-16T23:30:29.941Z,2.50
2022-11-16T23:32:56.880Z,2.67
2022-11-16T23:35:23.924Z,2.60
2022-11-16T23:37:50.892Z,2.40
2022-11-16T23:40:20.831Z,2.65
2022-11-16T23:42:47.828Z,2.92
2022-11-16T23:45:14.729Z,2.55
2022-11-16T23:47:41.982Z,2.40
2022-11-16T23:50:09.080Z,2.65
2022-11-16T23:52:36.174Z,2.50
2022-11-16T23:55:03.078Z,2.55
2022-11-16T23:57:30.046Z,2.60
2022-11-16T23:59:56.932Z,2.40
